Time;durP1;ratioP1;P1;durP2;ratioP2;P2;SDS_P1;SDS_P2;PMS_P1;PMS_P2;Temp;Humidity;BMP_temperature;BMP_pressure;BME280_temperature;BME280_humidity;BME280_pressure;Samples;Min_cycle;Max_cycle;Signal;HPM_P1;HPM_P2
2024/01/04 00:00:25;;;;;;;11.15;3.90;;;8.80;99.90;;;;;;5021964;28;20860;-74
2024/01/04 00:02:51;;;;;;;11.93;3.80;;;8.70;99.90;;;;;;5022328;28;20788;-77
2024/01/04 00:05:17;;;;;;;7.32;3.45;;;8.80;99.90;;;;;;5016910;28;20400;-72
2024/01/04 00:07:43;;;;;;;8.48;3.42;;;8.80;99.90;;;;;;5015942;28;20391;-71
2024/01/04 00:10:09;;;;;;;10.55;4.25;;;8.80;99.90;;;;;;5017356;28;20484;-75
2024/01/04 00:12:35;;;;;;;9.97;4.00;;;8.80;99.90;;;;;;5016963;28;20389;-72
2024/01/04 00:15:03;;;;;;;11.67;3.90;;;8.80;99.90;;;;;;5018743;28;20442;-74
2024/01/04 00:17:29;;;;;;;10.55;3.92;;;8.80;99.90;;;;;;5023649;28;20712;-74
2024/01/04 00:19:55;;;;;;;13.00;4.22;;;8.70;99.90;;;;;;5023871;28;20435;-74
2024/01/04 00:22:20;;;;;;;11.32;3.90;;;8.80;99.90;;;;;;5021570;28;20420;-73
2024/01/04 00:24:46;;;;;;;9.63;3.57;;;8.70;99.90;;;;;;5023092;28;20389;-74
2024/01/04 00:27:11;;;;;;;13.30;4.00;;;8.70;99.90;;;;;;5024858;28;20380;-73
2024/01/04 00:29:37;;;;;;;7.67;3.80;;;8.70;99.90;;;;;;5027813;28;20391;-72
2024/01/04 00:32:03;;;;;;;8.40;3.60;;;8.70;99.90;;;;;;5026072;28;20393;-73
2024/01/04 00:34:28;;;;;;;10.80;4.05;;;8.60;99.90;;;;;;5020441;28;20393;-73
2024/01/04 00:36:55;;;;;;;10.77;3.90;;;8.70;99.90;;;;;;5019495;28;20459;-74
2024/01/04 00:39:24;;;;;;;7.22;3.80;;;8.70;99.90;;;;;;5025037;28;20381;-74
2024/01/04 00:41:53;;;;;;;11.43;4.13;;;8.70;99.90;;;;;;5025552;28;20412;-72
2024/01/04 00:44:18;;;;;;;6.55;3.60;;;8.80;99.90;;;;;;5022737;28;20796;-73
2024/01/04 00:46:44;;;;;;;12.02;3.97;;;8.80;99.90;;;;;;5019236;28;20388;-74
2024/01/04 00:49:10;;;;;;;9.50;4.10;;;8.80;99.90;;;;;;5019374;28;20412;-73
2024/01/04 00:51:36;;;;;;;10.67;4.00;;;8.80;99.90;;;;;;5023939;28;20392;-74
2024/01/04 00:54:02;;;;;;;12.17;4.10;;;8.80;99.90;;;;;;5018687;28;20397;-74
2024/01/04 00:56:32;;;;;;;9.27;3.88;;;8.90;99.90;;;;;;5017239;28;20712;-76
2024/01/04 00:58:57;;;;;;;8.30;4.53;;;8.90;99.70;;;;;;5025775;28;20903;-73
2024/01/04 01:01:23;;;;;;;13.23;4.43;;;8.90;99.90;;;;;;5021888;28;20413;-73
2024/01/04 01:03:48;;;;;;;8.90;4.37;;;8.90;99.70;;;;;;5022426;28;20392;-76
2024/01/04 01:06:15;;;;;;;10.05;4.57;;;8.90;99.70;;;;;;5027965;28;20417;-71
2024/01/04 01:08:41;;;;;;;13.32;4.30;;;9.00;98.20;;;;;;5028811;28;20412;-73
2024/01/04 01:11:08;;;;;;;9.07;4.40;;;9.00;96.00;;;;;;5029497;28;20462;-71
2024/01/04 01:13:34;;;;;;;13.75;5.18;;;9.00;97.50;;;;;;5028463;28;20440;-72
2024/01/04 01:16:00;;;;;;;9.60;4.80;;;9.00;96.50;;;;;;5014738;28;20408;-71
2024/01/04 01:18:26;;;;;;;13.65;5.50;;;9.00;97.00;;;;;;5033728;28;20401;-71
2024/01/04 01:20:52;;;;;;;10.15;5.10;;;9.00;94.00;;;;;;5034489;28;20447;-72
2024/01/04 01:23:18;;;;;;;9.00;5.57;;;9.00;94.40;;;;;;5034220;28;20393;-72
2024/01/04 01:25:43;;;;;;;11.80;5.40;;;9.00;95.30;;;;;;5035081;28;20393;-71
2024/01/04 01:28:09;;;;;;;17.03;5.43;;;9.10;92.70;;;;;;5035394;28;20396;-70
2024/01/04 01:30:37;;;;;;;13.33;5.40;;;9.10;94.70;;;;;;5035389;28;20432;-69
2024/01/04 01:33:03;;;;;;;14.43;5.60;;;9.20;93.20;;;;;;5034286;28;20400;-71
2024/01/04 01:35:29;;;;;;;11.33;6.30;;;9.20;92.30;;;;;;5035488;28;20392;-72
2024/01/04 01:37:54;;;;;;;12.30;5.93;;;9.20;89.70;;;;;;5038655;28;20389;-70
2024/01/04 01:40:21;;;;;;;12.30;5.80;;;9.20;93.50;;;;;;5038140;28;20404;-69
2024/01/04 01:42:48;;;;;;;12.83;5.07;;;9.20;93.50;;;;;;5038796;28;20473;-71
2024/01/04 01:45:14;;;;;;;14.30;5.82;;;9.20;92.60;;;;;;5038755;28;20393;-71
2024/01/04 01:47:40;;;;;;;11.20;5.55;;;9.20;93.00;;;;;;5038709;28;20431;-70
2024/01/04 01:50:07;;;;;;;8.90;4.80;;;9.20;92.70;;;;;;5038703;28;20408;-70
2024/01/04 01:52:36;;;;;;;8.85;4.68;;;9.30;91.00;;;;;;5038651;28;20397;-70
2024/01/04 01:55:02;;;;;;;9.68;4.63;;;9.40;88.40;;;;;;5038644;28;20377;-69
2024/01/04 01:57:31;;;;;;;7.32;3.60;;;9.30;86.70;;;;;;5038598;28;20412;-70
2024/01/04 01:59:57;;;;;;;7.25;3.60;;;9.30;87.30;;;;;;5038440;28;20431;-68
2024/01/04 02:02:23;;;;;;;7.25;3.30;;;9.30;86.20;;;;;;5038624;28;20623;-69
2024/01/04 02:04:48;;;;;;;8.13;3.73;;;9.30;86.50;;;;;;5038692;28;20448;-70
2024/01/04 02:07:14;;;;;;;6.73;3.17;;;9.30;87.30;;;;;;5038443;28;20384;-69
2024/01/04 02:09:40;;;;;;;5.40;3.30;;;9.30;85.80;;;;;;5038376;28;20380;-69
2024/01/04 02:12:06;;;;;;;6.00;3.10;;;9.30;86.10;;;;;;5037873;28;20405;-72
2024/01/04 02:14:33;;;;;;;5.67;3.00;;;9.30;85.30;;;;;;5048239;22;20909;-75
2024/01/04 02:16:58;;;;;;;6.65;3.08;;;9.30;86.50;;;;;;5034023;28;20371;-76
2024/01/04 02:19:24;;;;;;;8.10;3.33;;;9.30;87.30;;;;;;5034170;28;20444;-77
2024/01/04 02:21:50;;;;;;;6.37;3.70;;;9.40;86.10;;;;;;5033446;28;20403;-75
2024/01/04 02:24:15;;;;;;;9.25;4.20;;;9.40;87.30;;;;;;5033418;28;20792;-75
2024/01/04 02:26:41;;;;;;;11.03;4.80;;;9.30;90.80;;;;;;5032426;28;20403;-75
2024/01/04 02:29:06;;;;;;;8.43;4.97;;;9.20;96.30;;;;;;5033300;28;20387;-75
2024/01/04 02:31:32;;;;;;;7.97;4.40;;;9.10;96.20;;;;;;5033343;28;20481;-75
2024/01/04 02:33:57;;;;;;;9.67;5.17;;;9.00;98.10;;;;;;5033777;28;20445;-76
2024/01/04 02:36:24;;;;;;;8.20;4.40;;;9.00;98.80;;;;;;5033574;28;20398;-76
2024/01/04 02:38:49;;;;;;;9.30;4.57;;;8.90;96.70;;;;;;5034130;28;20409;-75
2024/01/04 02:41:15;;;;;;;12.93;4.60;;;8.80;99.30;;;;;;5034043;28;20877;-76
2024/01/04 02:43:40;;;;;;;9.10;4.00;;;8.80;99.90;;;;;;5033573;28;20460;-73
2024/01/04 02:46:06;;;;;;;10.77;3.95;;;8.90;99.90;;;;;;5033385;28;20433;-74
2024/01/04 02:48:32;;;;;;;6.78;3.22;;;8.80;97.30;;;;;;5033624;28;20394;-76
2024/01/04 02:50:58;;;;;;;7.10;2.90;;;8.80;97.80;;;;;;5033156;28;20453;-75
2024/01/04 02:53:23;;;;;;;7.45;3.10;;;8.80;98.10;;;;;;5033532;28;20963;-75
2024/01/04 02:55:49;;;;;;;7.67;3.00;;;8.80;97.30;;;;;;5031840;28;20434;-75
2024/01/04 02:58:15;;;;;;;5.93;3.07;;;8.80;95.40;;;;;;5033383;28;20395;-76
2024/01/04 03:00:40;;;;;;;6.77;3.40;;;8.70;96.70;;;;;;5033444;28;20403;-76
2024/01/04 03:03:06;;;;;;;6.90;3.60;;;8.70;97.70;;;;;;5033563;28;20787;-75
2024/01/04 03:05:31;;;;;;;11.13;3.50;;;8.80;96.00;;;;;;5033390;28;20738;-77
2024/01/04 03:07:57;;;;;;;6.23;3.00;;;8.80;94.40;;;;;;5033294;28;20390;-76
2024/01/04 03:10:22;;;;;;;5.40;3.67;;;8.70;96.90;;;;;;5031792;28;20494;-75
2024/01/04 03:12:48;;;;;;;8.50;3.90;;;8.80;97.00;;;;;;5032052;28;20394;-76
2024/01/04 03:15:13;;;;;;;12.50;4.10;;;8.80;97.20;;;;;;5033096;28;20502;-75
2024/01/04 03:17:39;;;;;;;8.18;4.07;;;8.80;96.50;;;;;;5033769;28;20422;-76
2024/01/04 03:20:05;;;;;;;13.52;4.40;;;8.90;93.20;;;;;;5033520;28;20410;-75
2024/01/04 03:22:31;;;;;;;7.43;4.28;;;8.90;92.30;;;;;;5033948;28;20379;-76
2024/01/04 03:24:56;;;;;;;11.38;5.22;;;8.90;93.30;;;;;;5035136;28;20421;-75
2024/01/04 03:27:22;;;;;;;9.40;4.70;;;8.90;93.80;;;;;;5036203;28;20379;-75
2024/01/04 03:29:49;;;;;;;10.37;5.60;;;9.00;93.20;;;;;;5037736;28;20395;-77
2024/01/04 03:32:15;;;;;;;13.13;5.88;;;9.00;91.00;;;;;;5035408;28;20425;-76
2024/01/04 03:34:41;;;;;;;9.77;5.50;;;9.00;90.80;;;;;;5033732;28;20383;-75
2024/01/04 03:37:06;;;;;;;10.43;5.80;;;9.00;91.10;;;;;;5031841;28;20872;-75
2024/01/04 03:39:32;;;;;;;14.20;5.67;;;9.00;90.70;;;;;;5031813;28;20383;-75
2024/01/04 03:41:57;;;;;;;11.10;5.73;;;9.00;90.30;;;;;;5031867;28;20387;-75
2024/01/04 03:44:23;;;;;;;13.20;6.10;;;9.00;90.10;;;;;;5032504;28;20467;-74
2024/01/04 03:46:49;;;;;;;10.33;5.20;;;9.00;90.80;;;;;;5031717;28;20710;-74
2024/01/04 03:49:14;;;;;;;9.88;5.18;;;9.00;89.40;;;;;;5031125;28;20528;-75
2024/01/04 03:51:40;;;;;;;14.15;5.45;;;9.00;88.90;;;;;;5031547;28;20383;-76
2024/01/04 03:54:05;;;;;;;10.18;5.40;;;9.10;87.60;;;;;;5031429;28;20422;-75
2024/01/04 03:56:31;;;;;;;11.27;5.60;;;9.10;86.50;;;;;;5031762;28;20395;-75
2024/01/04 03:58:57;;;;;;;12.07;5.03;;;9.10;88.00;;;;;;5031191;28;20417;-75
2024/01/04 04:01:22;;;;;;;12.65;4.88;;;9.20;86.60;;;;;;5031766;28;20406;-75
2024/01/04 04:03:48;;;;;;;10.20;5.25;;;9.20;86.30;;;;;;5031257;28;20446;-74
2024/01/04 04:06:13;;;;;;;11.57;5.10;;;9.20;86.20;;;;;;5031578;28;20444;-75
2024/01/04 04:08:39;;;;;;;8.57;4.65;;;9.10;86.20;;;;;;5031404;28;20383;-75
2024/01/04 04:11:15;;;;;;;13.15;5.00;;;9.10;86.90;;;;;;5030716;28;20391;-74
2024/01/04 04:13:40;;;;;;;11.43;4.97;;;9.20;85.20;;;;;;5031921;28;20425;-74
2024/01/04 04:16:06;;;;;;;17.33;5.00;;;9.20;86.10;;;;;;5031408;28;20888;-75
2024/01/04 04:18:31;;;;;;;15.60;4.83;;;9.20;83.80;;;;;;5031874;28;20464;-75
2024/01/04 04:20:57;;;;;;;11.95;4.22;;;9.30;81.50;;;;;;5034545;28;20442;-75
2024/01/04 04:23:23;;;;;;;10.88;4.60;;;9.30;77.50;;;;;;5034807;28;20437;-76
2024/01/04 04:25:48;;;;;;;8.48;4.35;;;9.30;78.80;;;;;;5031462;28;20981;-76
2024/01/04 04:28:14;;;;;;;11.90;4.00;;;9.30;79.90;;;;;;5031073;28;20394;-76
2024/01/04 04:30:39;;;;;;;10.90;4.10;;;9.30;79.20;;;;;;5031165;28;20465;-74
2024/01/04 04:33:05;;;;;;;5.85;3.13;;;9.30;77.90;;;;;;5030647;28;20391;-75
2024/01/04 04:35:30;;;;;;;13.35;4.00;;;9.30;75.20;;;;;;5033582;28;20395;-76
2024/01/04 04:37:56;;;;;;;11.43;3.50;;;9.30;75.20;;;;;;5045994;28;20775;-75
2024/01/04 04:40:21;;;;;;;6.33;3.20;;;9.30;75.10;;;;;;5036923;28;20772;-74
2024/01/04 04:42:47;;;;;;;6.40;3.20;;;9.20;74.10;;;;;;5037540;28;20798;-75
2024/01/04 04:45:13;;;;;;;7.53;3.10;;;9.20;75.00;;;;;;5038296;28;20394;-76
2024/01/04 04:47:38;;;;;;;6.47;2.80;;;9.10;77.10;;;;;;5032145;28;20482;-75
2024/01/04 04:50:04;;;;;;;9.53;2.90;;;9.00;76.30;;;;;;5031045;28;20477;-74
2024/01/04 04:52:30;;;;;;;8.13;2.53;;;9.00;76.20;;;;;;5030603;28;20531;-76
2024/01/04 04:54:56;;;;;;;8.93;3.22;;;9.00;75.80;;;;;;5030886;28;20387;-75
2024/01/04 04:57:21;;;;;;;6.22;3.22;;;9.00;76.40;;;;;;5030715;28;20391;-76
2024/01/04 04:59:47;;;;;;;9.23;3.88;;;9.10;77.40;;;;;;5030692;28;20474;-75
2024/01/04 05:02:13;;;;;;;10.82;3.90;;;9.00;78.70;;;;;;5028973;28;20391;-76
2024/01/04 05:04:39;;;;;;;8.40;4.63;;;9.10;79.10;;;;;;5030578;28;20370;-74
2024/01/04 05:07:04;;;;;;;11.67;5.20;;;9.00;80.40;;;;;;5030256;28;20441;-75
2024/01/04 05:09:30;;;;;;;10.13;5.40;;;8.90;81.60;;;;;;5031220;28;20379;-75
2024/01/04 05:11:55;;;;;;;8.87;4.90;;;9.00;80.30;;;;;;5034773;28;20390;-75
2024/01/04 05:14:21;;;;;;;10.60;5.10;;;8.90;80.90;;;;;;5034870;28;20413;-75
2024/01/04 05:16:47;;;;;;;12.30;4.37;;;8.90;80.90;;;;;;5034471;28;20478;-75
2024/01/04 05:19:12;;;;;;;11.90;5.00;;;9.00;79.70;;;;;;5034314;28;20555;-75
2024/01/04 05:21:38;;;;;;;10.60;5.07;;;9.00;79.90;;;;;;5034230;28;20761;-75
2024/01/04 05:24:04;;;;;;;12.20;5.20;;;9.00;79.70;;;;;;5033375;28;20398;-75
2024/01/04 05:26:30;;;;;;;10.43;5.27;;;9.00;79.80;;;;;;5032440;28;20815;-76
2024/01/04 05:28:55;;;;;;;12.30;5.20;;;9.00;80.00;;;;;;5033831;28;20391;-76
2024/01/04 05:31:21;;;;;;;9.38;5.10;;;9.00;81.10;;;;;;5033962;28;20391;-74
2024/01/04 05:33:47;;;;;;;13.02;5.60;;;9.10;81.20;;;;;;5033878;28;20442;-74
2024/01/04 05:36:13;;;;;;;13.05;6.03;;;9.10;80.20;;;;;;5033785;28;20475;-74
2024/01/04 05:38:38;;;;;;;11.48;4.80;;;9.30;79.70;;;;;;5034023;28;20419;-75
2024/01/04 05:41:06;;;;;;;12.10;5.03;;;9.20;79.10;;;;;;5033838;28;20421;-75
2024/01/04 05:43:33;;;;;;;10.70;5.30;;;9.20;80.00;;;;;;5034323;28;20399;-76
2024/01/04 05:46:05;;;;;;;8.27;4.75;;;9.30;80.90;;;;;;5033412;28;20375;-76
2024/01/04 05:48:31;;;;;;;12.57;6.20;;;9.30;81.60;;;;;;5033844;28;20390;-76
2024/01/04 05:50:56;;;;;;;11.65;5.15;;;9.20;82.30;;;;;;5034003;28;20697;-76
2024/01/04 05:53:22;;;;;;;12.20;5.30;;;9.20;83.70;;;;;;5034420;28;20543;-75
2024/01/04 05:55:47;;;;;;;7.00;4.95;;;9.20;84.00;;;;;;5032537;28;20441;-74
2024/01/04 05:58:13;;;;;;;10.52;5.72;;;9.20;82.80;;;;;;5033619;28;20388;-75
2024/01/04 06:00:39;;;;;;;14.73;5.40;;;9.30;82.60;;;;;;5033494;28;20403;-75
2024/01/04 06:03:04;;;;;;;7.13;4.70;;;9.40;80.30;;;;;;5034055;28;20510;-76
2024/01/04 06:05:30;;;;;;;10.02;5.03;;;9.40;80.10;;;;;;5033634;28;20395;-76
2024/01/04 06:07:55;;;;;;;11.98;4.72;;;9.40;80.50;;;;;;5033114;28;20745;-75
2024/01/04 06:10:21;;;;;;;7.55;4.28;;;9.40;80.20;;;;;;5033891;28;20760;-76
2024/01/04 06:12:47;;;;;;;6.18;4.20;;;9.40;78.00;;;;;;5033507;28;20753;-76
2024/01/04 06:15:12;;;;;;;7.47;4.20;;;9.30;79.10;;;;;;5039161;28;20423;-75
2024/01/04 06:17:38;;;;;;;6.33;4.20;;;9.30;80.60;;;;;;5038298;28;20391;-76
2024/01/04 06:20:04;;;;;;;8.50;4.30;;;9.20;80.30;;;;;;5037782;28;20430;-75
2024/01/04 06:22:29;;;;;;;9.77;4.45;;;9.20;81.20;;;;;;5032544;28;20387;-75
2024/01/04 06:24:55;;;;;;;5.72;3.70;;;9.20;80.90;;;;;;5033089;28;20398;-75
2024/01/04 06:27:20;;;;;;;4.73;3.60;;;9.20;77.90;;;;;;5033040;28;20478;-77
2024/01/04 06:29:46;;;;;;;5.23;2.97;;;9.10;77.10;;;;;;5033106;28;20476;-75
2024/01/04 06:32:11;;;;;;;7.00;3.10;;;9.10;77.90;;;;;;5031750;28;20777;-75
2024/01/04 06:34:37;;;;;;;5.33;2.83;;;9.00;79.50;;;;;;5032928;28;20383;-75
2024/01/04 06:37:03;;;;;;;5.53;2.93;;;9.10;78.20;;;;;;5032111;28;20471;-76
2024/01/04 06:39:29;;;;;;;3.15;2.47;;;9.10;77.10;;;;;;5032527;28;20399;-75
2024/01/04 06:41:56;;;;;;;4.17;2.23;;;9.10;75.80;;;;;;5031034;28;20504;-74
2024/01/04 06:44:22;;;;;;;6.40;2.60;;;9.10;74.40;;;;;;5032668;28;20743;-75
2024/01/04 06:46:47;;;;;;;3.00;2.30;;;9.10;74.90;;;;;;5031134;28;20409;-74
2024/01/04 06:49:13;;;;;;;8.55;2.53;;;9.00;76.20;;;;;;5032360;28;20383;-75
2024/01/04 06:51:38;;;;;;;4.07;2.63;;;9.00;76.20;;;;;;5032508;28;20422;-74
2024/01/04 06:54:04;;;;;;;4.47;2.50;;;9.00;77.00;;;;;;5032148;28;20398;-74
2024/01/04 06:56:30;;;;;;;5.20;2.50;;;9.00;75.70;;;;;;5032121;28;20383;-75
2024/01/04 06:58:55;;;;;;;4.20;2.30;;;8.90;76.20;;;;;;5032190;28;20752;-74
2024/01/04 07:01:21;;;;;;;3.90;2.53;;;9.00;74.60;;;;;;5031906;28;20415;-75
2024/01/04 07:03:47;;;;;;;4.65;2.40;;;9.00;75.40;;;;;;5031863;28;20754;-75
2024/01/04 07:06:13;;;;;;;3.72;2.28;;;9.00;75.00;;;;;;5031927;28;20383;-75
2024/01/04 07:08:39;;;;;;;3.63;2.30;;;9.00;75.60;;;;;;5032282;28;20406;-75
2024/01/04 07:11:05;;;;;;;3.90;2.10;;;9.00;74.60;;;;;;5030595;28;20383;-74
2024/01/04 07:13:33;;;;;;;3.00;2.03;;;9.00;72.90;;;;;;5032743;28;20391;-76
2024/01/04 07:15:58;;;;;;;2.40;1.70;;;9.00;73.60;;;;;;5032158;28;20421;-74
2024/01/04 07:18:24;;;;;;;3.67;2.00;;;9.10;73.40;;;;;;5032605;28;20391;-74
2024/01/04 07:20:50;;;;;;;2.10;1.60;;;9.10;72.60;;;;;;5031592;28;20601;-75
2024/01/04 07:23:17;;;;;;;4.50;2.07;;;9.10;73.30;;;;;;5030948;28;20447;-75
2024/01/04 07:25:42;;;;;;;3.60;1.80;;;9.10;72.20;;;;;;5033813;28;20466;-74
2024/01/04 07:28:08;;;;;;;2.00;1.80;;;9.20;70.20;;;;;;5036614;28;20418;-74
2024/01/04 07:30:35;;;;;;;2.90;1.73;;;9.10;69.40;;;;;;5049259;28;20375;-75
2024/01/04 07:33:00;;;;;;;3.35;1.58;;;9.20;69.70;;;;;;5047320;28;20432;-76
2024/01/04 07:35:26;;;;;;;1.70;1.50;;;9.10;70.30;;;;;;5034539;28;20754;-77
2024/01/04 07:37:51;;;;;;;1.70;1.60;;;9.10;69.20;;;;;;5032187;28;20387;-76
2024/01/04 07:40:17;;;;;;;2.40;1.70;;;9.10;69.60;;;;;;5032743;28;20909;-76
2024/01/04 07:42:43;;;;;;;3.97;1.90;;;9.20;68.80;;;;;;5032643;28;20487;-74
2024/01/04 07:45:09;;;;;;;3.30;2.17;;;9.20;69.00;;;;;;5031626;28;20394;-75
2024/01/04 07:47:37;;;;;;;5.97;2.40;;;9.20;68.60;;;;;;5031695;28;20577;-74
2024/01/04 07:50:04;;;;;;;2.97;2.00;;;9.10;69.00;;;;;;5032184;28;20386;-74
2024/01/04 07:52:29;;;;;;;5.45;2.60;;;9.10;69.40;;;;;;5031109;28;20413;-76
2024/01/04 07:54:55;;;;;;;3.72;2.20;;;9.10;69.70;;;;;;5033206;28;20443;-74
2024/01/04 07:57:20;;;;;;;3.85;2.47;;;9.20;69.50;;;;;;5034536;28;20862;-75
2024/01/04 07:59:46;;;;;;;3.60;2.72;;;9.20;69.10;;;;;;5034230;28;20422;-74
2024/01/04 08:02:14;;;;;;;3.20;2.90;;;9.20;69.50;;;;;;5034124;28;20490;-74
2024/01/04 08:04:39;;;;;;;3.15;2.65;;;9.20;69.20;;;;;;5032030;28;20838;-74
2024/01/04 08:07:05;;;;;;;5.10;3.00;;;9.20;71.10;;;;;;5032202;28;20418;-74
2024/01/04 08:09:30;;;;;;;4.80;2.80;;;9.20;71.90;;;;;;5036784;28;20410;-72
2024/01/04 08:11:56;;;;;;;7.07;3.10;;;9.10;74.30;;;;;;5034016;28;20421;-72
2024/01/04 08:14:21;;;;;;;5.30;2.97;;;9.00;75.40;;;;;;5054158;23;20436;-73
2024/01/04 08:16:47;;;;;;;2.70;2.30;;;9.00;75.90;;;;;;5069172;28;20388;-73
2024/01/04 08:19:14;;;;;;;5.60;2.70;;;9.00;75.80;;;;;;5069019;28;20463;-72
2024/01/04 08:21:39;;;;;;;5.13;3.03;;;9.00;76.50;;;;;;5084754;28;20912;-73
2024/01/04 08:24:06;;;;;;;4.85;3.15;;;9.00;77.20;;;;;;5072206;28;20447;-73
2024/01/04 08:26:32;;;;;;;6.97;3.40;;;9.00;78.00;;;;;;5088116;28;20501;-72
2024/01/04 08:28:57;;;;;;;5.07;3.20;;;9.00;80.50;;;;;;5088418;28;20481;-73
2024/01/04 08:31:23;;;;;;;6.03;3.60;;;9.10;77.90;;;;;;5080580;28;20475;-72
2024/01/04 08:33:49;;;;;;;6.57;3.75;;;9.00;79.80;;;;;;5068230;28;20379;-75
2024/01/04 08:36:14;;;;;;;6.30;3.20;;;9.00;81.40;;;;;;5068507;28;20398;-72
2024/01/04 08:38:40;;;;;;;4.80;3.50;;;9.10;80.50;;;;;;5067688;28;20394;-72
2024/01/04 08:41:05;;;;;;;6.07;3.70;;;9.10;79.70;;;;;;5066896;28;20403;-73
2024/01/04 08:43:31;;;;;;;7.22;3.40;;;9.20;77.90;;;;;;5069250;28;20383;-73
2024/01/04 08:45:57;;;;;;;7.97;3.78;;;9.20;79.40;;;;;;5071729;28;20382;-73
2024/01/04 08:48:22;;;;;;;7.50;3.90;;;9.20;77.80;;;;;;5072036;28;20388;-73
2024/01/04 08:50:48;;;;;;;9.20;3.67;;;9.30;76.00;;;;;;5053575;28;20389;-73
2024/01/04 08:53:13;;;;;;;5.70;3.67;;;9.30;76.10;;;;;;5062979;28;20402;-73
2024/01/04 08:55:39;;;;;;;6.10;3.80;;;9.40;76.00;;;;;;5071813;28;20429;-75
2024/01/04 08:58:05;;;;;;;8.17;3.90;;;9.40;74.80;;;;;;5061622;28;20400;-73
2024/01/04 09:00:34;;;;;;;7.17;3.60;;;9.50;73.60;;;;;;5066182;28;20765;-73
2024/01/04 09:02:59;;;;;;;11.07;4.03;;;9.50;73.30;;;;;;5054712;28;20393;-73
2024/01/04 09:05:25;;;;;;;7.17;3.90;;;9.50;72.80;;;;;;5055388;28;20387;-73
2024/01/04 09:07:51;;;;;;;9.10;4.10;;;9.50;72.30;;;;;;5071910;28;20380;-73
2024/01/04 09:10:17;;;;;;;9.32;3.60;;;9.60;72.30;;;;;;5071925;28;20399;-73
2024/01/04 09:12:43;;;;;;;12.60;4.60;;;9.60;72.20;;;;;;5071999;28;20383;-72
2024/01/04 09:15:09;;;;;;;14.20;4.28;;;9.70;70.30;;;;;;5071877;28;20396;-73
2024/01/04 09:17:35;;;;;;;9.93;4.70;;;9.70;71.60;;;;;;5068878;28;20385;-74
2024/01/04 09:20:00;;;;;;;6.03;4.00;;;9.70;72.00;;;;;;5052206;28;20385;-74
2024/01/04 09:22:26;;;;;;;9.87;4.07;;;9.80;69.10;;;;;;5055303;28;21120;-72
2024/01/04 09:24:51;;;;;;;6.97;4.33;;;9.80;69.90;;;;;;5072462;28;20429;-72
2024/01/04 09:27:17;;;;;;;7.43;3.80;;;9.90;69.00;;;;;;5071201;28;20404;-72
2024/01/04 09:29:46;;;;;;;9.52;3.72;;;9.90;68.50;;;;;;5060150;28;20868;-72
2024/01/04 09:32:13;;;;;;;8.63;3.90;;;10.00;67.60;;;;;;5052159;28;20385;-73
2024/01/04 09:34:38;;;;;;;12.20;4.35;;;10.00;68.00;;;;;;5050348;28;20447;-72
2024/01/04 09:37:04;;;;;;;9.60;3.90;;;10.10;65.90;;;;;;5052262;28;20763;-72
2024/01/04 09:39:30;;;;;;;5.27;3.30;;;10.10;65.40;;;;;;5053487;28;20404;-72
2024/01/04 09:41:56;;;;;;;4.40;2.90;;;10.10;63.30;;;;;;5059784;28;20492;-73
2024/01/04 09:44:24;;;;;;;8.57;3.60;;;10.00;63.70;;;;;;5068362;28;20389;-72
2024/01/04 09:46:56;;;;;;;10.23;3.30;;;10.10;65.40;;;;;;5053950;28;20903;-74
2024/01/04 09:49:21;;;;;;;8.23;2.50;;;10.10;62.60;;;;;;5069525;28;20961;-73
2024/01/04 09:51:47;;;;;;;5.33;2.00;;;10.20;60.20;;;;;;5074476;28;20424;-72
2024/01/04 09:54:15;;;;;;;4.00;2.10;;;10.30;59.10;;;;;;5073239;28;20380;-73
2024/01/04 09:56:43;;;;;;;7.53;2.20;;;10.40;58.10;;;;;;5070823;28;20392;-73
2024/01/04 09:59:09;;;;;;;5.10;1.93;;;10.40;57.50;;;;;;5073026;28;20433;-71
2024/01/04 10:01:37;;;;;;;5.90;2.22;;;10.60;56.20;;;;;;5061562;28;20815;-72
2024/01/04 10:04:07;;;;;;;5.95;1.80;;;10.60;56.00;;;;;;5064827;28;20395;-72
2024/01/04 10:06:37;;;;;;;4.47;1.90;;;10.60;55.50;;;;;;5072563;28;20561;-72
2024/01/04 10:09:18;;;;;;;2.63;1.80;;;10.60;55.40;;;;;;5075560;28;20455;-73
2024/01/04 10:12:05;;;;;;;3.15;1.83;;;10.50;54.70;;;;;;5075078;28;20387;-73
2024/01/04 10:14:31;;;;;;;6.78;2.05;;;10.40;55.90;;;;;;5076043;28;20476;-72
2024/01/04 10:16:57;;;;;;;3.80;1.90;;;10.30;56.70;;;;;;5069844;28;20397;-72
2024/01/04 10:19:23;;;;;;;3.50;2.20;;;10.30;58.00;;;;;;5062342;28;20405;-71
2024/01/04 10:21:49;;;;;;;5.47;2.60;;;10.20;59.80;;;;;;5057671;28;20405;-71
2024/01/04 10:24:25;;;;;;;4.10;2.50;;;10.10;61.10;;;;;;5076472;28;20388;-71
2024/01/04 10:26:59;;;;;;;5.10;2.30;;;10.20;62.70;;;;;;5075673;28;20391;-72
2024/01/04 10:29:26;;;;;;;4.65;2.70;;;10.20;62.80;;;;;;5072684;28;20387;-71
2024/01/04 10:32:02;;;;;;;12.20;2.78;;;10.10;64.90;;;;;;5071284;28;20764;-71
2024/01/04 10:34:28;;;;;;;6.40;2.50;;;10.00;64.30;;;;;;5069974;28;20448;-72
2024/01/04 10:37:06;;;;;;;7.65;2.70;;;10.00;65.60;;;;;;5058462;28;20416;-72
2024/01/04 10:39:31;;;;;;;6.00;2.90;;;9.90;65.00;;;;;;5054108;28;20377;-72
2024/01/04 10:42:01;;;;;;;3.40;2.80;;;9.90;67.60;;;;;;5055959;28;20428;-72
2024/01/04 10:44:28;;;;;;;7.95;2.97;;;9.90;67.40;;;;;;5053881;28;20373;-71
2024/01/04 10:46:59;;;;;;;4.10;2.85;;;9.80;67.60;;;;;;5060743;28;20383;-72
2024/01/04 10:49:25;;;;;;;5.87;3.10;;;9.80;69.60;;;;;;5069167;28;20384;-72
2024/01/04 10:51:52;;;;;;;7.70;3.20;;;9.80;70.90;;;;;;5072736;28;20880;-72
2024/01/04 10:54:19;;;;;;;8.38;3.95;;;9.90;70.90;;;;;;5068146;28;20819;-71
2024/01/04 10:56:45;;;;;;;6.43;4.13;;;9.80;71.90;;;;;;5068060;28;20439;-71
2024/01/04 10:59:12;;;;;;;7.82;4.32;;;9.80;73.00;;;;;;5051174;28;20382;-72
2024/01/04 11:01:41;;;;;;;4.35;3.95;;;9.80;71.90;;;;;;5051514;28;20409;-71
2024/01/04 11:04:07;;;;;;;6.43;4.65;;;9.80;72.90;;;;;;5051614;28;20377;-72
2024/01/04 11:06:40;;;;;;;8.00;4.50;;;9.70;72.30;;;;;;5055727;28;20377;-71
2024/01/04 11:09:07;;;;;;;8.68;5.40;;;9.60;74.80;;;;;;5057534;28;20424;-71
2024/01/04 11:11:34;;;;;;;10.50;5.18;;;9.60;77.10;;;;;;5051617;28;20784;-71
2024/01/04 11:14:00;;;;;;;8.80;4.80;;;9.50;79.10;;;;;;5071406;28;20391;-72
2024/01/04 11:16:44;;;;;;;8.07;5.17;;;9.40;80.70;;;;;;5071276;28;20480;-72
2024/01/04 11:19:27;;;;;;;8.40;5.40;;;9.40;81.90;;;;;;5071512;28;20380;-71
2024/01/04 11:22:11;;;;;;;10.05;5.47;;;9.40;82.50;;;;;;5071335;28;20411;-71
2024/01/04 11:25:03;;;;;;;9.23;5.25;;;9.40;84.00;;;;;;5071612;28;20403;-71
2024/01/04 11:27:29;;;;;;;6.43;5.10;;;9.40;84.90;;;;;;5063116;28;20805;-71
2024/01/04 11:29:55;;;;;;;10.93;5.60;;;9.30;85.50;;;;;;5051661;28;20409;-71
2024/01/04 11:32:21;;;;;;;9.43;5.47;;;9.30;85.20;;;;;;5051305;28;20382;-71
2024/01/04 11:34:48;;;;;;;8.17;5.60;;;9.30;85.00;;;;;;5052524;28;20385;-71
2024/01/04 11:37:19;;;;;;;11.68;5.60;;;9.40;84.80;;;;;;5056916;28;20442;-72
2024/01/04 11:40:11;;;;;;;8.98;4.80;;;9.50;83.70;;;;;;5055336;28;20409;-73
2024/01/04 11:42:38;;;;;;;7.63;4.50;;;9.60;82.20;;;;;;5067604;28;20406;-72
2024/01/04 11:45:15;;;;;;;8.15;4.32;;;9.70;80.60;;;;;;5071035;28;20376;-72
2024/01/04 11:47:44;;;;;;;10.48;4.50;;;9.80;78.10;;;;;;5070420;28;20411;-71
2024/01/04 11:50:28;;;;;;;6.93;4.30;;;9.80;77.60;;;;;;5075565;28;20451;-71
2024/01/04 11:53:05;;;;;;;7.75;4.50;;;9.80;77.50;;;;;;5075074;28;20415;-73
2024/01/04 11:55:33;;;;;;;6.28;4.55;;;9.90;75.90;;;;;;5072136;28;20391;-72
2024/01/04 11:58:09;;;;;;;5.63;4.25;;;9.90;74.80;;;;;;5070527;28;20749;-70
2024/01/04 12:00:36;;;;;;;6.90;4.50;;;10.00;73.70;;;;;;5069981;28;20403;-71
2024/01/04 12:03:11;;;;;;;6.20;4.60;;;9.90;73.00;;;;;;5071069;28;20387;-72
2024/01/04 12:05:37;;;;;;;9.23;4.50;;;10.00;71.30;;;;;;5071277;28;20383;-71
2024/01/04 12:08:03;;;;;;;6.95;4.68;;;10.00;71.50;;;;;;5058537;28;20396;-73
2024/01/04 12:10:28;;;;;;;9.55;4.82;;;9.90;71.80;;;;;;5052059;28;20396;-72
2024/01/04 12:12:54;;;;;;;6.80;4.70;;;9.90;73.80;;;;;;5051098;28;20484;-72
2024/01/04 12:15:20;;;;;;;7.25;4.32;;;9.90;73.70;;;;;;5051798;28;20391;-70
2024/01/04 12:17:45;;;;;;;8.48;3.95;;;9.80;74.00;;;;;;5069195;28;20387;-71
2024/01/04 12:20:12;;;;;;;7.67;4.53;;;9.90;72.20;;;;;;5069005;28;21882;-71
2024/01/04 12:22:41;;;;;;;7.93;4.50;;;10.00;72.20;;;;;;5058939;28;20396;-72
2024/01/04 12:25:07;;;;;;;5.32;3.97;;;10.10;70.60;;;;;;5067828;28;21020;-71
2024/01/04 12:27:36;;;;;;;5.80;4.10;;;10.00;72.20;;;;;;5077563;28;20753;-72
2024/01/04 12:30:05;;;;;;;7.03;4.20;;;10.00;73.30;;;;;;5050286;28;20393;-72
2024/01/04 12:32:31;;;;;;;6.10;4.05;;;10.00;72.00;;;;;;5084610;28;20851;-71
2024/01/04 12:34:57;;;;;;;6.28;3.88;;;9.90;73.30;;;;;;5090317;28;20477;-71
2024/01/04 12:37:22;;;;;;;7.50;4.30;;;9.90;73.80;;;;;;5090425;28;20510;-71
2024/01/04 12:39:49;;;;;;;7.95;3.72;;;9.80;74.70;;;;;;5087443;28;20411;-72
2024/01/04 12:42:14;;;;;;;7.75;3.22;;;9.80;74.40;;;;;;5071127;28;20431;-72
2024/01/04 12:44:40;;;;;;;5.50;2.40;;;9.70;73.20;;;;;;5055916;28;20985;-72
2024/01/04 12:47:07;;;;;;;8.50;2.70;;;9.60;70.60;;;;;;5059023;28;20389;-72
2024/01/04 12:49:34;;;;;;;5.68;2.50;;;9.60;69.40;;;;;;5070685;28;20388;-74